createdAt,value
2024-01-18T00:01:13.351Z,76.82
2024-01-18T00:04:01.809Z,77.15
2024-01-18T00:06:47.575Z,76.63
2024-01-18T00:09:33.129Z,76.40
2024-01-18T00:12:18.774Z,76.95
2024-01-18T00:15:04.808Z,77.66
2024-01-18T00:17:50.601Z,77.13
2024-01-18T00:20:36.209Z,77.17
2024-01-18T00:23:21.859Z,77.42
2024-01-18T00:26:07.643Z,77.53
2024-01-18T00:28:53.020Z,77.52
2024-01-18T00:31:38.425Z,77.68
2024-01-18T00:34:23.776Z,77.19
2024-01-18T00:37:09.320Z,76.92
2024-01-18T00:39:54.969Z,77.02
2024-01-18T00:42:40.729Z,77.42
2024-01-18T00:45:26.296Z,77.48
2024-01-18T00:48:11.641Z,77.36
2024-01-18T00:50:57.989Z,78.71
2024-01-18T00:53:43.645Z,80.49
2024-01-18T00:56:29.308Z,80.94
2024-01-18T00:59:14.608Z,82.52
2024-01-18T01:02:01.166Z,85.05
2024-01-18T01:04:47.509Z,88.05
2024-01-18T01:07:32.887Z,91.42
2024-01-18T01:10:18.400Z,93.68
2024-01-18T01:13:03.584Z,94.68
2024-01-18T01:15:49.388Z,94.15
2024-01-18T01:18:34.752Z,92.59
2024-01-18T01:21:20.633Z,91.88
2024-01-18T01:24:06.356Z,91.97
2024-01-18T01:26:51.788Z,91.51
2024-01-18T01:29:37.668Z,93.54
2024-01-18T01:32:22.929Z,94.50
2024-01-18T01:35:08.626Z,94.55
2024-01-18T01:37:54.282Z,95.81
2024-01-18T01:40:39.801Z,95.29
2024-01-18T01:43:25.617Z,95.11
2024-01-18T01:46:10.768Z,94.93
2024-01-18T01:49:02.521Z,94.62
2024-01-18T01:51:50.933Z,93.81
2024-01-18T01:54:36.501Z,93.59
2024-01-18T01:57:22.212Z,93.29
2024-01-18T02:00:09.335Z,92.77
2024-01-18T02:02:58.517Z,91.31
2024-01-18T02:05:45.811Z,90.99
2024-01-18T02:08:31.856Z,91.24
2024-01-18T02:11:17.550Z,91.77
2024-01-18T02:14:04.323Z,92.03
2024-01-18T02:16:50.064Z,92.74
2024-01-18T02:19:35.939Z,92.58
2024-01-18T02:22:25.949Z,93.98
2024-01-18T02:25:21.627Z,94.70
2024-01-18T02:28:06.760Z,93.19
2024-01-18T02:30:51.941Z,93.21
2024-01-18T02:33:37.442Z,91.84
2024-01-18T02:36:22.786Z,92.42
2024-01-18T02:39:08.250Z,93.94
2024-01-18T02:41:53.807Z,94.97
2024-01-18T02:44:39.331Z,96.58
2024-01-18T02:47:28.954Z,95.92
2024-01-18T02:50:14.456Z,95.67
2024-01-18T02:52:59.720Z,95.33
2024-01-18T02:55:45.195Z,97.02
2024-01-18T02:58:30.833Z,98.24
2024-01-18T03:01:16.563Z,97.16
2024-01-18T03:04:02.256Z,97.23
2024-01-18T03:06:48.183Z,97.36
2024-01-18T03:09:33.840Z,97.63
2024-01-18T03:12:19.213Z,98.92
2024-01-18T03:15:10.231Z,98.78
2024-01-18T03:17:55.947Z,97.45
2024-01-18T03:20:41.111Z,95.89
2024-01-18T03:23:26.931Z,96.16
2024-01-18T03:26:12.379Z,96.23
2024-01-18T03:28:57.981Z,96.72
2024-01-18T03:31:43.269Z,96.98
2024-01-18T03:34:28.739Z,96.97
2024-01-18T03:37:14.270Z,94.43
2024-01-18T03:39:59.488Z,95.40
2024-01-18T03:42:44.669Z,95.43
2024-01-18T03:45:30.267Z,94.41
2024-01-18T03:48:15.592Z,93.96
2024-01-18T03:51:00.890Z,93.08
2024-01-18T03:53:46.256Z,93.24
2024-01-18T03:56:31.604Z,93.89
2024-01-18T03:59:17.160Z,93.58
2024-01-18T04:02:02.455Z,94.83
2024-01-18T04:04:48.313Z,95.71
2024-01-18T04:07:33.515Z,95.17
2024-01-18T04:10:19.109Z,94.27
2024-01-18T04:13:04.759Z,93.89
2024-01-18T04:15:50.283Z,95.22
2024-01-18T04:18:36.075Z,95.41
2024-01-18T04:21:21.486Z,94.99
2024-01-18T04:24:06.931Z,94.49
2024-01-18T04:26:52.144Z,93.70
2024-01-18T04:29:37.422Z,94.02
2024-01-18T04:32:22.385Z,93.56
2024-01-18T04:35:08.226Z,93.17
2024-01-18T04:37:53.878Z,93.68
2024-01-18T04:40:39.531Z,96.00
2024-01-18T04:43:25.113Z,95.03
2024-01-18T04:46:10.907Z,94.04
2024-01-18T04:48:56.490Z,94.27
2024-01-18T04:51:42.093Z,93.55
2024-01-18T04:54:27.554Z,92.31
2024-01-18T04:57:12.939Z,90.78
2024-01-18T04:59:58.800Z,89.17
2024-01-18T05:02:44.324Z,88.65
2024-01-18T05:05:30.383Z,88.48
2024-01-18T05:08:15.756Z,88.60
2024-01-18T05:11:01.415Z,88.63
2024-01-18T05:13:46.985Z,90.39
2024-01-18T05:16:32.763Z,90.45
2024-01-18T05:19:19.649Z,87.86
2024-01-18T05:22:05.525Z,86.67
2024-01-18T05:24:50.774Z,87.69
2024-01-18T05:27:36.535Z,88.59
2024-01-18T05:30:21.655Z,88.67
2024-01-18T05:33:07.349Z,88.20
2024-01-18T05:35:53.591Z,89.38
2024-01-18T05:38:41.691Z,90.00
2024-01-18T05:41:27.497Z,89.53
2024-01-18T05:44:12.904Z,90.10
2024-01-18T05:46:58.227Z,88.02
2024-01-18T05:49:44.372Z,86.62
2024-01-18T05:52:29.610Z,86.36
2024-01-18T05:55:14.857Z,85.34
2024-01-18T05:58:00.133Z,84.04
2024-01-18T06:00:45.574Z,83.18
2024-01-18T06:03:31.297Z,83.19
2024-01-18T06:06:17.201Z,86.62
2024-01-18T06:09:03.125Z,89.51
2024-01-18T06:11:48.929Z,91.30
2024-01-18T06:14:35.424Z,90.71
2024-01-18T06:17:20.905Z,88.78
2024-01-18T06:20:07.358Z,86.95
2024-01-18T06:22:52.764Z,86.06
2024-01-18T06:25:38.259Z,85.88
2024-01-18T06:28:23.818Z,88.38
2024-01-18T06:31:09.126Z,90.73
2024-01-18T06:33:54.897Z,91.07
2024-01-18T06:36:40.385Z,91.73
2024-01-18T06:39:26.040Z,91.33
2024-01-18T06:42:11.409Z,90.39
2024-01-18T06:44:56.785Z,91.13
2024-01-18T06:47:42.383Z,90.17
2024-01-18T06:50:27.871Z,89.64
2024-01-18T06:53:13.179Z,89.84
2024-01-18T06:55:58.544Z,89.70
2024-01-18T06:58:44.630Z,90.29
2024-01-18T07:01:30.235Z,90.57
2024-01-18T07:04:15.667Z,93.17
2024-01-18T07:07:01.715Z,93.33
2024-01-18T07:09:47.381Z,94.36
2024-01-18T07:12:35.396Z,95.74
2024-01-18T07:15:21.025Z,97.08
2024-01-18T07:18:06.833Z,97.12
2024-01-18T07:20:52.138Z,98.15
2024-01-18T07:23:37.588Z,98.18
2024-01-18T07:26:23.233Z,99.03
2024-01-18T07:29:10.113Z,98.51
2024-01-18T07:31:55.592Z,98.01
2024-01-18T07:34:41.273Z,96.90
2024-01-18T07:37:26.263Z,96.58
2024-01-18T07:40:12.098Z,96.38
2024-01-18T07:42:57.487Z,96.69
2024-01-18T07:45:43.141Z,96.07
2024-01-18T07:48:31.399Z,95.48
2024-01-18T07:51:16.672Z,95.28
2024-01-18T07:54:01.858Z,94.75
2024-01-18T07:56:47.399Z,93.39
2024-01-18T07:59:33.019Z,93.19
2024-01-18T08:02:18.199Z,92.54
2024-01-18T08:05:03.781Z,92.10
2024-01-18T08:07:49.873Z,93.01
2024-01-18T08:10:35.030Z,92.10
2024-01-18T08:13:20.580Z,91.87
2024-01-18T08:16:05.940Z,92.74
2024-01-18T08:18:51.630Z,92.86
2024-01-18T08:21:45.332Z,92.44
2024-01-18T08:24:30.839Z,92.77
2024-01-18T08:27:16.700Z,93.14
2024-01-18T08:30:02.204Z,92.53
2024-01-18T08:32:47.517Z,91.62
2024-01-18T08:35:33.985Z,92.33
2024-01-18T08:38:20.003Z,93.14
2024-01-18T08:41:05.492Z,93.05
2024-01-18T08:43:51.154Z,93.11
2024-01-18T08:46:36.498Z,92.17
2024-01-18T08:49:21.872Z,92.85
2024-01-18T08:52:07.599Z,92.34
2024-01-18T08:54:53.491Z,91.55
2024-01-18T08:57:39.187Z,92.16
2024-01-18T09:00:24.591Z,92.74
2024-01-18T09:03:10.041Z,92.77
2024-01-18T09:05:57.048Z,92.47
2024-01-18T09:08:42.490Z,92.92
2024-01-18T09:11:27.931Z,92.38
2024-01-18T09:14:13.585Z,93.09
2024-01-18T09:16:58.956Z,93.60
2024-01-18T09:19:44.683Z,93.80
2024-01-18T09:22:30.153Z,92.80
2024-01-18T09:25:15.213Z,93.10
2024-01-18T09:28:00.596Z,93.91
2024-01-18T09:30:45.943Z,93.82
2024-01-18T09:33:31.674Z,93.56
2024-01-18T09:36:17.453Z,92.77
2024-01-18T09:39:02.893Z,92.93
2024-01-18T09:41:55.797Z,92.06
2024-01-18T09:44:46.396Z,90.24
2024-01-18T09:47:31.789Z,89.57
2024-01-18T09:50:20.359Z,89.78
2024-01-18T09:53:06.113Z,89.04
2024-01-18T09:55:54.161Z,89.24
2024-01-18T09:58:39.836Z,88.40
2024-01-18T10:01:25.167Z,87.28
2024-01-18T10:04:13.020Z,88.37
2024-01-18T10:07:00.296Z,88.02
2024-01-18T10:09:47.516Z,85.87
2024-01-18T10:12:32.817Z,84.97
2024-01-18T10:15:34.852Z,84.63
2024-01-18T10:18:20.359Z,85.03
2024-01-18T10:21:06.288Z,86.01
2024-01-18T10:23:53.609Z,84.47
2024-01-18T10:26:38.815Z,83.75
2024-01-18T10:29:24.618Z,82.95
2024-01-18T10:32:09.821Z,84.39
2024-01-18T10:34:55.443Z,85.62
2024-01-18T10:37:40.564Z,87.73
2024-01-18T10:40:25.915Z,89.51
2024-01-18T10:43:13.129Z,89.61
2024-01-18T10:46:00.055Z,90.32
2024-01-18T10:48:47.743Z,90.14
2024-01-18T10:51:33.030Z,90.92
2024-01-18T10:54:25.999Z,89.98
2024-01-18T10:57:17.946Z,91.01
2024-01-18T11:00:03.430Z,91.39
2024-01-18T11:02:49.205Z,90.55
2024-01-18T11:05:35.285Z,90.42
2024-01-18T11:08:20.819Z,90.49
2024-01-18T11:11:07.374Z,91.16
2024-01-18T11:13:53.060Z,91.65
2024-01-18T11:16:41.224Z,91.17
2024-01-18T11:19:46.715Z,90.78
2024-01-18T11:22:32.363Z,90.46
2024-01-18T11:25:28.701Z,89.96
2024-01-18T11:28:23.389Z,87.07
2024-01-18T11:31:08.873Z,87.64
2024-01-18T11:33:55.826Z,86.37
2024-01-18T11:36:47.624Z,86.44
2024-01-18T11:39:47.934Z,86.97
2024-01-18T11:42:34.291Z,87.83
2024-01-18T11:45:20.206Z,87.89
2024-01-18T11:48:06.134Z,89.02
2024-01-18T11:50:51.525Z,90.01
2024-01-18T11:53:38.182Z,88.32
2024-01-18T11:56:24.827Z,86.83
2024-01-18T11:59:10.461Z,87.13
2024-01-18T12:01:55.912Z,85.95
2024-01-18T12:04:41.612Z,86.06
2024-01-18T12:07:27.399Z,84.91
2024-01-18T12:10:13.104Z,83.97
2024-01-18T12:12:59.885Z,83.84
2024-01-18T12:15:46.148Z,82.78
2024-01-18T12:18:41.849Z,82.89
2024-01-18T12:21:27.129Z,83.18
2024-01-18T12:24:12.688Z,83.25
2024-01-18T12:26:58.302Z,83.24
2024-01-18T12:29:44.007Z,82.38
2024-01-18T12:32:30.007Z,80.48
2024-01-18T12:35:15.640Z,81.88
2024-01-18T12:38:03.568Z,81.89
2024-01-18T12:40:49.603Z,82.53
2024-01-18T12:43:35.104Z,80.92
2024-01-18T12:46:20.972Z,81.97
2024-01-18T12:49:07.198Z,81.22
2024-01-18T12:51:58.708Z,79.52
2024-01-18T12:54:44.616Z,79.23
2024-01-18T12:57:30.553Z,80.07
2024-01-18T13:00:16.644Z,80.43
2024-01-18T13:03:15.377Z,80.26
2024-01-18T13:06:01.102Z,79.08
2024-01-18T13:08:46.692Z,78.03
2024-01-18T13:11:33.084Z,78.61
2024-01-18T13:14:19.118Z,78.39
2024-01-18T13:17:05.525Z,78.75
2024-01-18T13:19:54.602Z,77.40
2024-01-18T13:22:40.260Z,77.66
2024-01-18T13:25:26.026Z,75.33
2024-01-18T13:28:11.631Z,74.88
2024-01-18T13:30:57.392Z,76.29
2024-01-18T13:33:42.629Z,75.75
2024-01-18T13:36:28.282Z,75.70
2024-01-18T13:39:13.865Z,75.90
2024-01-18T13:41:59.110Z,75.82
2024-01-18T13:44:44.756Z,76.50
2024-01-18T13:47:30.413Z,76.52
2024-01-18T13:50:16.169Z,76.44
2024-01-18T13:53:01.396Z,74.86
2024-01-18T13:55:47.371Z,76.02
2024-01-18T13:58:33.190Z,76.18
2024-01-18T14:01:18.724Z,76.09
2024-01-18T14:04:04.347Z,75.56
2024-01-18T14:06:49.991Z,75.03
2024-01-18T14:09:35.222Z,73.98
2024-01-18T14:12:20.863Z,73.19
2024-01-18T14:15:07.368Z,73.55
2024-01-18T14:17:53.055Z,74.77
2024-01-18T14:20:38.760Z,75.23
2024-01-18T14:23:24.114Z,75.32
2024-01-18T14:26:09.870Z,75.93
2024-01-18T14:28:55.112Z,74.39
2024-01-18T14:31:40.400Z,75.82
2024-01-18T14:34:26.101Z,76.14
2024-01-18T14:37:13.020Z,76.20
2024-01-18T14:39:58.871Z,75.56
2024-01-18T14:42:44.310Z,74.68
2024-01-18T14:45:29.845Z,75.01
2024-01-18T14:48:16.776Z,75.27
2024-01-18T14:51:02.321Z,75.02
2024-01-18T14:53:48.011Z,76.15
2024-01-18T14:56:33.470Z,75.61
2024-01-18T14:59:18.869Z,74.32
2024-01-18T15:02:04.894Z,72.84
2024-01-18T15:04:50.243Z,71.00
2024-01-18T15:07:35.655Z,73.67
2024-01-18T15:10:21.066Z,72.42
2024-01-18T15:13:06.391Z,73.77
2024-01-18T15:15:52.555Z,74.45
2024-01-18T15:18:37.989Z,73.53
2024-01-18T15:21:23.804Z,72.89
2024-01-18T15:24:08.952Z,71.86
2024-01-18T15:26:54.597Z,70.89
2024-01-18T15:29:40.237Z,71.02
2024-01-18T15:32:25.765Z,70.98
2024-01-18T15:35:11.965Z,71.17
2024-01-18T15:37:57.915Z,70.90
2024-01-18T15:40:43.766Z,70.82
2024-01-18T15:43:30.027Z,70.76
2024-01-18T15:46:15.336Z,71.27
2024-01-18T15:49:00.781Z,71.00
2024-01-18T15:51:46.082Z,70.70
2024-01-18T15:54:31.520Z,68.77
2024-01-18T15:57:16.997Z,69.81
2024-01-18T16:00:02.503Z,71.40
2024-01-18T16:02:49.806Z,72.30
2024-01-18T16:05:35.758Z,71.95
2024-01-18T16:08:21.185Z,71.39
2024-01-18T16:11:07.495Z,70.56
2024-01-18T16:13:52.857Z,71.80
2024-01-18T16:16:39.090Z,72.34
2024-01-18T16:19:24.556Z,75.16
2024-01-18T16:22:10.068Z,75.69
2024-01-18T16:24:55.992Z,76.49
2024-01-18T16:27:43.530Z,75.89
2024-01-18T16:30:31.491Z,75.50
2024-01-18T16:33:17.622Z,77.20
2024-01-18T16:36:03.339Z,76.91
2024-01-18T16:38:48.621Z,78.18
2024-01-18T16:41:34.293Z,79.27
2024-01-18T16:44:19.528Z,79.93
2024-01-18T16:47:05.118Z,80.52
2024-01-18T16:49:50.723Z,79.76
2024-01-18T16:52:36.084Z,78.68
2024-01-18T16:55:21.605Z,78.56
2024-01-18T16:58:07.217Z,80.48
2024-01-18T17:00:54.772Z,80.01
2024-01-18T17:03:40.644Z,79.36
2024-01-18T17:06:26.535Z,79.97
2024-01-18T17:09:11.916Z,80.76
2024-01-18T17:11:57.347Z,79.64
2024-01-18T17:14:43.489Z,79.47
2024-01-18T17:17:29.726Z,78.30
2024-01-18T17:20:15.181Z,77.94
2024-01-18T17:23:01.430Z,77.92
2024-01-18T17:25:47.075Z,77.42
2024-01-18T17:28:32.394Z,76.64
2024-01-18T17:31:17.966Z,78.10
2024-01-18T17:34:03.534Z,77.84
2024-01-18T17:36:49.895Z,77.49
2024-01-18T17:39:35.473Z,77.77
2024-01-18T17:42:20.760Z,77.84
2024-01-18T17:45:06.823Z,77.38
2024-01-18T17:47:53.725Z,77.30
2024-01-18T17:50:42.267Z,76.97
2024-01-18T17:53:29.353Z,77.02
2024-01-18T17:56:14.953Z,77.46
2024-01-18T17:59:00.406Z,77.28
2024-01-18T18:01:45.837Z,76.83
2024-01-18T18:04:31.354Z,76.57
2024-01-18T18:07:16.929Z,77.52
2024-01-18T18:10:03.950Z,78.41
2024-01-18T18:12:49.540Z,78.00
2024-01-18T18:15:41.868Z,77.47
2024-01-18T18:18:31.497Z,77.66
2024-01-18T18:21:17.271Z,77.50
2024-01-18T18:24:02.601Z,81.05
2024-01-18T18:26:48.072Z,81.14
2024-01-18T18:29:33.629Z,78.38
2024-01-18T18:32:18.949Z,78.48
2024-01-18T18:35:04.928Z,77.66
2024-01-18T18:37:50.425Z,77.34
2024-01-18T18:40:35.988Z,76.77
2024-01-18T18:43:22.107Z,76.35
2024-01-18T18:46:07.724Z,77.32
2024-01-18T18:48:53.087Z,76.90
2024-01-18T18:51:38.817Z,77.30
2024-01-18T18:54:24.181Z,77.54
2024-01-18T18:57:09.598Z,77.05
2024-01-18T18:59:56.134Z,77.60
2024-01-18T19:02:41.495Z,77.21
2024-01-18T19:05:27.238Z,78.08
2024-01-18T19:08:12.879Z,77.84
2024-01-18T19:10:58.220Z,77.21
2024-01-18T19:13:43.770Z,78.13
2024-01-18T19:16:30.914Z,77.12
2024-01-18T19:19:17.029Z,77.35
2024-01-18T19:22:02.493Z,77.03
2024-01-18T19:24:49.466Z,76.82
2024-01-18T19:27:35.254Z,75.98
2024-01-18T19:30:20.991Z,75.90
2024-01-18T19:33:10.768Z,76.32
2024-01-18T19:36:07.222Z,75.72
2024-01-18T19:38:53.157Z,76.08
2024-01-18T19:41:38.477Z,75.85
2024-01-18T19:44:23.975Z,75.30
2024-01-18T19:47:09.620Z,74.86
2024-01-18T19:49:55.010Z,75.69
2024-01-18T19:52:40.368Z,75.60
2024-01-18T19:55:26.800Z,76.06
2024-01-18T19:58:12.080Z,76.25
2024-01-18T20:00:57.384Z,75.77
2024-01-18T20:03:42.976Z,75.82
2024-01-18T20:06:28.617Z,75.42
2024-01-18T20:09:13.797Z,75.63
2024-01-18T20:12:00.739Z,75.44
2024-01-18T20:14:46.516Z,74.95
2024-01-18T20:17:31.695Z,75.20
2024-01-18T20:20:18.147Z,75.14
2024-01-18T20:23:04.301Z,75.60
2024-01-18T20:25:49.750Z,75.54
2024-01-18T20:28:36.016Z,75.34
2024-01-18T20:31:21.386Z,76.20
2024-01-18T20:34:06.737Z,76.41
2024-01-18T20:36:52.211Z,76.87
2024-01-18T20:39:37.557Z,77.13
2024-01-18T20:42:23.151Z,77.40
2024-01-18T20:45:10.041Z,77.48
2024-01-18T20:47:55.448Z,77.45
2024-01-18T20:50:40.924Z,77.04
2024-01-18T20:53:26.287Z,77.21
2024-01-18T20:56:11.556Z,77.31
2024-01-18T20:58:57.220Z,77.49
2024-01-18T21:01:43.528Z,77.45
2024-01-18T21:04:29.125Z,77.33
2024-01-18T21:07:14.552Z,77.10
2024-01-18T21:10:00.387Z,77.43
2024-01-18T21:12:46.836Z,77.38
2024-01-18T21:15:32.260Z,77.34
2024-01-18T21:18:18.728Z,77.12
2024-01-18T21:21:04.456Z,77.29
2024-01-18T21:23:50.187Z,77.13
2024-01-18T21:26:35.318Z,77.34
2024-01-18T21:29:20.778Z,77.50
2024-01-18T21:32:06.216Z,77.56
2024-01-18T21:34:51.603Z,76.92
2024-01-18T21:37:37.342Z,78.69
2024-01-18T21:40:22.530Z,78.61
2024-01-18T21:43:08.240Z,78.42
2024-01-18T21:45:53.870Z,78.14
2024-01-18T21:48:39.647Z,77.72
2024-01-18T21:51:25.316Z,77.50
2024-01-18T21:54:11.257Z,77.25
2024-01-18T21:56:56.945Z,77.87
2024-01-18T21:59:45.835Z,78.00
2024-01-18T22:02:30.971Z,77.50
2024-01-18T22:05:16.381Z,77.43
2024-01-18T22:08:02.617Z,77.53
2024-01-18T22:10:48.343Z,77.67
2024-01-18T22:13:33.722Z,77.86
2024-01-18T22:16:19.352Z,77.42
2024-01-18T22:19:05.495Z,77.29
2024-01-18T22:21:53.212Z,76.35
2024-01-18T22:24:40.091Z,76.42
2024-01-18T22:27:25.249Z,76.06
2024-01-18T22:30:11.132Z,76.05
2024-01-18T22:32:56.833Z,76.18
2024-01-18T22:35:42.961Z,76.48
2024-01-18T22:38:28.759Z,77.02
2024-01-18T22:41:14.516Z,77.21
2024-01-18T22:44:00.019Z,77.23
2024-01-18T22:46:45.431Z,77.76
2024-01-18T22:49:31.793Z,78.22
2024-01-18T22:52:17.224Z,77.75
2024-01-18T22:55:02.692Z,78.33
2024-01-18T22:57:47.869Z,78.21
2024-01-18T23:00:33.352Z,77.84
2024-01-18T23:03:18.728Z,77.86
2024-01-18T23:08:51.097Z,77.92
2024-01-18T23:11:37.258Z,77.98
2024-01-18T23:14:22.598Z,77.96
2024-01-18T23:17:08.091Z,77.15
2024-01-18T23:19:53.307Z,76.31
2024-01-18T23:22:39.155Z,76.91
2024-01-18T23:25:24.792Z,76.42
2024-01-18T23:28:09.855Z,77.45
2024-01-18T23:30:55.552Z,78.21
2024-01-18T23:33:40.817Z,79.01
2024-01-18T23:36:26.053Z,79.47
2024-01-18T23:39:12.124Z,82.05
2024-01-18T23:41:57.394Z,82.43
2024-01-18T23:44:43.131Z,83.15
2024-01-18T23:47:28.468Z,82.68
2024-01-18T23:50:14.271Z,82.88
2024-01-18T23:52:59.535Z,82.08
2024-01-18T23:55:45.067Z,80.65
2024-01-18T23:58:30.368Z,80.28
